createdAt,value
2023-05-14T00:01:19.976Z,67.53
2023-05-14T00:03:46.677Z,67.79
2023-05-14T00:06:15.646Z,67.67
2023-05-14T00:08:44.486Z,67.63
2023-05-14T00:11:11.325Z,67.94
2023-05-14T00:13:38.022Z,67.52
2023-05-14T00:16:05.046Z,67.63
2023-05-14T00:18:34.208Z,67.85
2023-05-14T00:21:00.849Z,67.42
2023-05-14T00:23:29.815Z,67.64
2023-05-14T00:25:56.511Z,67.85
2023-05-14T00:28:23.200Z,67.88
2023-05-14T00:30:49.815Z,68.15
2023-05-14T00:33:16.463Z,67.79
2023-05-14T00:35:43.238Z,68.40
2023-05-14T00:38:10.193Z,68.36
2023-05-14T00:40:36.770Z,68.48
2023-05-14T00:43:05.855Z,68.33
2023-05-14T00:45:32.458Z,68.19
2023-05-14T00:47:59.144Z,68.54
2023-05-14T00:50:29.089Z,68.61
2023-05-14T00:52:55.783Z,68.51
2023-05-14T00:55:22.842Z,68.30
2023-05-14T00:57:53.800Z,68.32
2023-05-14T01:00:23.181Z,68.51
2023-05-14T01:02:50.160Z,68.66
2023-05-14T01:05:17.002Z,68.90
2023-05-14T01:08:13.625Z,69.27
2023-05-14T01:10:52.120Z,68.75
2023-05-14T01:13:28.593Z,68.99
2023-05-14T01:15:57.794Z,69.08
2023-05-14T01:18:26.027Z,69.09
2023-05-14T01:20:54.463Z,68.89
2023-05-14T01:23:23.343Z,69.15
2023-05-14T01:25:50.104Z,68.93
2023-05-14T01:28:27.534Z,69.48
2023-05-14T01:31:01.153Z,69.29
2023-05-14T01:33:29.824Z,69.43
2023-05-14T01:35:56.658Z,69.49
2023-05-14T01:38:24.188Z,69.69
2023-05-14T01:40:51.397Z,69.36
2023-05-14T01:43:19.144Z,69.31
2023-05-14T01:45:46.105Z,69.51
2023-05-14T01:48:12.840Z,70.03
2023-05-14T01:50:39.498Z,69.54
2023-05-14T01:53:13.388Z,69.34
2023-05-14T01:55:42.329Z,69.92
2023-05-14T01:58:12.250Z,70.32
2023-05-14T02:00:38.860Z,70.06
2023-05-14T02:03:05.510Z,70.56
2023-05-14T02:05:32.208Z,70.59
2023-05-14T02:08:01.193Z,70.71
2023-05-14T02:10:30.116Z,70.90
2023-05-14T02:12:58.986Z,71.06
2023-05-14T02:15:25.675Z,71.02
2023-05-14T02:17:52.301Z,70.94
2023-05-14T02:20:18.944Z,71.03
2023-05-14T02:22:46.498Z,70.82
2023-05-14T02:25:15.859Z,70.88
2023-05-14T02:27:42.567Z,71.18
2023-05-14T02:30:10.366Z,71.01
2023-05-14T02:32:37.591Z,71.22
2023-05-14T02:35:04.625Z,71.45
2023-05-14T02:37:36.096Z,71.18
2023-05-14T02:40:02.741Z,71.27
2023-05-14T02:42:31.577Z,71.54
2023-05-14T02:44:58.261Z,71.82
2023-05-14T02:47:27.154Z,71.75
2023-05-14T02:49:53.788Z,71.63
2023-05-14T02:52:20.348Z,71.87
2023-05-14T02:54:46.978Z,71.72
2023-05-14T02:57:16.051Z,71.52
2023-05-14T02:59:44.788Z,71.94
2023-05-14T03:02:11.789Z,71.97
2023-05-14T03:04:39.004Z,71.64
2023-05-14T03:07:05.785Z,71.70
2023-05-14T03:09:32.540Z,71.67
2023-05-14T03:12:00.117Z,72.18
2023-05-14T03:14:26.738Z,71.55
2023-05-14T03:16:55.648Z,71.92
2023-05-14T03:19:22.292Z,71.28
2023-05-14T03:21:51.638Z,70.98
2023-05-14T03:24:21.183Z,71.08
2023-05-14T03:26:47.991Z,71.11
2023-05-14T03:29:18.097Z,71.22
2023-05-14T03:31:44.968Z,70.78
2023-05-14T03:34:11.649Z,71.00
2023-05-14T03:36:39.812Z,70.66
2023-05-14T03:39:09.777Z,70.66
2023-05-14T03:41:39.344Z,70.30
2023-05-14T03:44:06.400Z,71.14
2023-05-14T03:46:33.307Z,70.52
2023-05-14T03:49:00.024Z,70.18
2023-05-14T03:51:29.000Z,70.07
2023-05-14T03:53:55.577Z,69.66
2023-05-14T03:56:25.048Z,70.45
2023-05-14T03:58:54.885Z,70.38
2023-05-14T04:01:21.530Z,70.22
2023-05-14T04:03:48.333Z,70.33
2023-05-14T04:06:17.429Z,70.28
2023-05-14T04:08:44.090Z,70.53
2023-05-14T04:11:10.718Z,70.38
2023-05-14T04:13:37.365Z,70.18
2023-05-14T04:16:06.698Z,70.02
2023-05-14T04:18:35.861Z,69.72
2023-05-14T04:21:02.699Z,69.52
2023-05-14T04:23:29.822Z,69.31
2023-05-14T04:25:58.530Z,69.82
2023-05-14T04:28:25.240Z,69.56
2023-05-14T04:30:52.529Z,69.31
2023-05-14T04:33:22.125Z,69.21
2023-05-14T04:35:52.225Z,69.57
2023-05-14T04:38:18.916Z,69.25
2023-05-14T04:40:47.591Z,69.14
2023-05-14T04:43:17.578Z,68.87
2023-05-14T04:45:46.635Z,69.57
2023-05-14T04:48:16.406Z,68.85
2023-05-14T04:50:44.311Z,69.30
2023-05-14T04:53:15.706Z,69.06
2023-05-14T04:55:42.387Z,68.89
2023-05-14T04:58:09.002Z,68.51
2023-05-14T05:00:38.331Z,68.67
2023-05-14T05:03:07.935Z,68.92
2023-05-14T05:05:35.517Z,69.23
2023-05-14T05:08:02.136Z,69.15
2023-05-14T05:10:28.747Z,69.00
2023-05-14T05:12:55.434Z,69.39
2023-05-14T05:15:22.896Z,68.95
2023-05-14T05:17:50.800Z,68.92
2023-05-14T05:20:19.917Z,69.34
2023-05-14T05:22:46.674Z,68.69
2023-05-14T05:25:13.391Z,68.66
2023-05-14T05:27:40.076Z,68.49
2023-05-14T05:30:07.451Z,68.50
2023-05-14T05:32:34.421Z,68.20
2023-05-14T05:35:01.532Z,68.49
2023-05-14T05:37:30.797Z,68.82
2023-05-14T05:39:57.512Z,69.14
2023-05-14T05:42:24.573Z,68.93
2023-05-14T05:44:51.194Z,69.07
2023-05-14T05:47:17.934Z,68.74
2023-05-14T05:49:44.576Z,69.08
2023-05-14T05:52:11.158Z,69.49
2023-05-14T05:54:40.136Z,68.62
2023-05-14T05:57:09.244Z,68.74
2023-05-14T05:59:38.085Z,68.57
2023-05-14T06:02:05.014Z,68.85
2023-05-14T06:04:31.635Z,68.76
2023-05-14T06:07:00.570Z,69.15
2023-05-14T06:09:29.449Z,69.11
2023-05-14T06:11:56.031Z,69.21
2023-05-14T06:14:23.463Z,69.03
2023-05-14T06:16:50.105Z,69.16
2023-05-14T06:19:17.080Z,69.36
2023-05-14T06:21:48.650Z,68.71
2023-05-14T06:24:20.131Z,68.81
2023-05-14T06:26:49.457Z,68.84
2023-05-14T06:29:16.142Z,68.37
2023-05-14T06:31:42.833Z,68.41
2023-05-14T06:34:09.507Z,68.31
2023-05-14T06:36:36.215Z,68.15
2023-05-14T06:39:05.222Z,67.80
2023-05-14T06:41:34.022Z,68.18
2023-05-14T06:44:00.664Z,68.20
2023-05-14T06:46:27.317Z,67.75
2023-05-14T06:48:59.195Z,67.98
2023-05-14T06:51:26.169Z,67.88
2023-05-14T06:53:54.986Z,67.98
2023-05-14T06:56:22.518Z,68.21
2023-05-14T06:58:49.245Z,68.13
2023-05-14T07:01:17.208Z,68.60
2023-05-14T07:03:44.063Z,68.53
2023-05-14T07:06:13.933Z,68.02
2023-05-14T07:08:40.861Z,67.71
2023-05-14T07:11:09.957Z,67.66
2023-05-14T07:13:39.501Z,67.44
2023-05-14T07:16:07.208Z,67.11
2023-05-14T07:18:33.912Z,67.33
2023-05-14T07:21:00.552Z,67.27
2023-05-14T07:23:27.143Z,66.86
2023-05-14T07:25:56.747Z,66.80
2023-05-14T07:28:23.341Z,67.17
2023-05-14T07:30:52.192Z,67.11
2023-05-14T07:33:18.841Z,66.66
2023-05-14T07:35:45.742Z,66.91
2023-05-14T07:38:12.482Z,66.93
2023-05-14T07:40:41.798Z,66.53
2023-05-14T07:43:08.520Z,66.46
2023-05-14T07:45:40.613Z,66.60
2023-05-14T07:48:09.680Z,66.35
2023-05-14T07:50:37.127Z,66.02
2023-05-14T07:53:03.905Z,65.78
2023-05-14T07:55:30.773Z,65.49
2023-05-14T07:57:57.455Z,65.31
2023-05-14T08:00:24.376Z,65.33
2023-05-14T08:03:00.220Z,65.08
2023-05-14T08:05:29.386Z,65.34
2023-05-14T08:07:55.994Z,64.65
2023-05-14T08:10:25.014Z,64.94
2023-05-14T08:12:51.878Z,65.11
2023-05-14T08:15:18.811Z,64.44
2023-05-14T08:17:45.454Z,64.60
2023-05-14T08:20:12.363Z,64.40
2023-05-14T08:22:41.079Z,64.31
2023-05-14T08:25:08.092Z,63.78
2023-05-14T08:27:34.739Z,64.30
2023-05-14T08:30:01.335Z,63.80
2023-05-14T08:32:27.933Z,63.82
2023-05-14T08:34:54.595Z,63.49
2023-05-14T08:37:21.226Z,63.29
2023-05-14T08:39:50.435Z,62.99
2023-05-14T08:42:21.316Z,63.29
2023-05-14T08:44:52.670Z,62.64
2023-05-14T08:47:22.725Z,62.42
2023-05-14T08:49:58.800Z,62.13
2023-05-14T08:52:27.979Z,62.28
2023-05-14T08:54:56.564Z,62.32
2023-05-14T08:57:28.078Z,61.97
2023-05-14T08:59:54.928Z,62.19
2023-05-14T09:02:27.823Z,61.88
2023-05-14T09:04:59.561Z,62.00
2023-05-14T09:07:27.158Z,61.44
2023-05-14T09:09:54.432Z,61.10
2023-05-14T09:12:23.712Z,60.61
2023-05-14T09:14:53.017Z,61.06
2023-05-14T09:17:20.150Z,60.57
2023-05-14T09:19:49.179Z,60.31
2023-05-14T09:22:18.345Z,60.07
2023-05-14T09:25:03.858Z,59.73
2023-05-14T09:27:32.427Z,59.52
2023-05-14T09:30:06.131Z,59.48
2023-05-14T09:32:40.264Z,58.71
2023-05-14T09:35:40.336Z,58.01
2023-05-14T09:38:09.419Z,57.74
2023-05-14T09:40:36.321Z,58.13
2023-05-14T09:43:03.674Z,57.57
2023-05-14T09:45:32.629Z,56.64
2023-05-14T09:48:00.961Z,56.24
2023-05-14T09:50:27.745Z,55.99
2023-05-14T09:52:55.995Z,54.37
2023-05-14T09:55:26.251Z,53.33
2023-05-14T09:57:52.899Z,52.42
2023-05-14T10:00:20.209Z,51.66
2023-05-14T10:02:47.810Z,50.27
2023-05-14T10:05:17.670Z,49.91
2023-05-14T10:07:48.006Z,48.60
2023-05-14T10:10:18.841Z,47.21
2023-05-14T10:13:00.845Z,45.73
2023-05-14T10:15:33.823Z,47.22
2023-05-14T10:18:08.068Z,47.39
2023-05-14T10:20:35.322Z,47.17
2023-05-14T10:23:02.229Z,46.66
2023-05-14T10:25:29.435Z,46.25
2023-05-14T10:27:57.042Z,45.92
2023-05-14T10:30:26.247Z,45.64
2023-05-14T10:33:13.455Z,45.37
2023-05-14T10:35:57.884Z,44.50
2023-05-14T10:38:35.163Z,44.56
2023-05-14T10:41:05.746Z,45.57
2023-05-14T10:43:41.761Z,45.34
2023-05-14T10:46:12.135Z,45.33
2023-05-14T10:48:42.074Z,44.56
2023-05-14T10:51:12.809Z,44.28
2023-05-14T10:53:41.443Z,43.74
2023-05-14T10:56:10.844Z,43.35
2023-05-14T10:58:38.952Z,43.31
2023-05-14T11:01:11.286Z,43.00
2023-05-14T11:03:43.317Z,42.76
2023-05-14T11:06:11.825Z,42.55
2023-05-14T11:08:39.476Z,42.59
2023-05-14T11:11:09.597Z,42.45
2023-05-14T11:13:36.424Z,42.82
2023-05-14T11:16:11.949Z,42.03
2023-05-14T11:18:50.599Z,42.30
2023-05-14T11:21:17.633Z,42.05
2023-05-14T11:23:49.111Z,42.03
2023-05-14T11:26:15.903Z,42.40
2023-05-14T11:28:45.120Z,42.51
2023-05-14T11:31:11.803Z,41.91
2023-05-14T11:33:39.967Z,42.34
2023-05-14T11:36:06.701Z,42.63
2023-05-14T11:38:33.454Z,41.91
2023-05-14T11:41:00.139Z,42.38
2023-05-14T11:43:29.640Z,41.40
2023-05-14T11:45:56.616Z,41.67
2023-05-14T11:48:27.311Z,41.51
2023-05-14T11:50:54.051Z,41.32
2023-05-14T11:53:26.017Z,41.14
2023-05-14T11:55:55.562Z,41.53
2023-05-14T11:58:22.248Z,42.25
2023-05-14T12:00:55.664Z,42.38
2023-05-14T12:03:26.798Z,42.20
2023-05-14T12:05:58.287Z,41.87
2023-05-14T12:08:32.649Z,41.68
2023-05-14T12:11:04.010Z,42.23
2023-05-14T12:13:31.977Z,41.36
2023-05-14T12:16:00.879Z,42.15
2023-05-14T12:18:29.926Z,42.70
2023-05-14T12:21:01.803Z,42.11
2023-05-14T12:23:30.251Z,42.69
2023-05-14T12:26:03.532Z,42.37
2023-05-14T12:28:30.443Z,42.21
2023-05-14T12:30:57.662Z,42.09
2023-05-14T12:33:26.511Z,42.28
2023-05-14T12:36:19.853Z,42.17
2023-05-14T12:38:49.293Z,42.24
2023-05-14T12:41:16.413Z,43.21
2023-05-14T12:43:43.946Z,43.06
2023-05-14T12:46:10.872Z,43.63
2023-05-14T12:48:37.452Z,43.79
2023-05-14T12:51:04.164Z,43.34
2023-05-14T12:53:30.751Z,43.54
2023-05-14T12:55:57.554Z,44.02
2023-05-14T12:58:24.261Z,44.04
2023-05-14T13:00:51.042Z,43.95
2023-05-14T13:03:20.256Z,43.79
2023-05-14T13:05:47.011Z,43.71
2023-05-14T13:08:17.830Z,44.25
2023-05-14T13:10:44.926Z,44.05
2023-05-14T13:13:11.919Z,44.00
2023-05-14T13:15:40.857Z,43.58
2023-05-14T13:18:09.882Z,44.03
2023-05-14T13:20:39.294Z,44.45
2023-05-14T13:23:06.618Z,45.15
2023-05-14T13:25:33.248Z,44.98
2023-05-14T13:27:59.932Z,44.87
2023-05-14T13:30:26.792Z,45.32
2023-05-14T13:32:53.506Z,44.80
2023-05-14T13:35:20.151Z,44.65
2023-05-14T13:37:48.947Z,45.40
2023-05-14T13:40:15.741Z,44.98
2023-05-14T13:42:42.471Z,45.46
2023-05-14T13:45:09.545Z,45.64
2023-05-14T13:47:36.203Z,46.02
2023-05-14T13:50:05.509Z,45.64
2023-05-14T13:52:32.108Z,46.20
2023-05-14T13:54:58.712Z,45.59
2023-05-14T13:57:26.054Z,46.28
2023-05-14T13:59:52.750Z,46.32
2023-05-14T14:02:22.029Z,46.86
2023-05-14T14:04:49.559Z,46.85
2023-05-14T14:07:18.781Z,46.62
2023-05-14T14:09:50.169Z,46.82
2023-05-14T14:12:17.032Z,46.71
2023-05-14T14:14:43.709Z,47.05
2023-05-14T14:17:10.368Z,47.06
2023-05-14T14:19:36.994Z,46.63
2023-05-14T14:22:03.881Z,46.53
2023-05-14T14:24:30.592Z,47.34
2023-05-14T14:26:57.179Z,46.77
2023-05-14T14:29:31.188Z,47.04
2023-05-14T14:31:57.889Z,46.50
2023-05-14T14:34:26.844Z,46.46
2023-05-14T14:36:53.459Z,46.32
2023-05-14T14:39:25.354Z,46.27
2023-05-14T14:41:52.097Z,46.43
2023-05-14T14:44:18.776Z,46.76
2023-05-14T14:46:45.360Z,46.56
2023-05-14T14:49:11.948Z,45.96
2023-05-14T14:51:38.641Z,46.20
2023-05-14T14:54:05.659Z,46.18
2023-05-14T14:56:33.538Z,46.39
2023-05-14T14:59:04.346Z,46.32
2023-05-14T15:01:33.334Z,47.22
2023-05-14T15:03:59.981Z,47.31
2023-05-14T15:06:29.024Z,46.74
2023-05-14T15:08:55.918Z,46.68
2023-05-14T15:11:22.562Z,46.79
2023-05-14T15:13:51.494Z,47.40
2023-05-14T15:16:18.472Z,47.48
2023-05-14T15:18:45.186Z,47.75
2023-05-14T15:21:11.898Z,47.54
2023-05-14T15:23:38.501Z,47.20
2023-05-14T15:26:07.841Z,47.28
2023-05-14T15:28:36.833Z,47.59
2023-05-14T15:31:05.844Z,47.79
2023-05-14T15:33:34.084Z,47.62
2023-05-14T15:36:00.919Z,47.85
2023-05-14T15:38:27.879Z,47.94
2023-05-14T15:40:54.463Z,47.80
2023-05-14T15:43:21.191Z,48.49
2023-05-14T15:45:50.494Z,48.34
2023-05-14T15:48:19.405Z,48.54
2023-05-14T15:50:49.687Z,49.00
2023-05-14T15:53:16.575Z,48.65
2023-05-14T15:55:48.194Z,48.92
2023-05-14T15:58:17.108Z,49.27
2023-05-14T16:00:43.812Z,49.73
2023-05-14T16:03:13.072Z,49.53
2023-05-14T16:05:39.742Z,49.63
2023-05-14T16:08:06.605Z,50.05
2023-05-14T16:10:33.200Z,49.96
2023-05-14T16:13:02.028Z,49.78
2023-05-14T16:15:29.131Z,50.16
2023-05-14T16:17:55.971Z,50.65
2023-05-14T16:20:23.135Z,50.81
2023-05-14T16:22:52.268Z,50.75
2023-05-14T16:25:18.908Z,50.59
2023-05-14T16:27:47.873Z,50.24
2023-05-14T16:30:16.848Z,50.17
2023-05-14T16:32:43.584Z,50.73
2023-05-14T16:35:13.354Z,50.80
2023-05-14T16:37:40.004Z,51.26
2023-05-14T16:40:07.982Z,51.38
2023-05-14T16:42:34.783Z,51.28
2023-05-14T16:45:01.400Z,52.19
2023-05-14T16:47:30.602Z,52.28
2023-05-14T16:49:57.267Z,52.29
2023-05-14T16:52:26.197Z,52.44
2023-05-14T16:54:52.812Z,52.90
2023-05-14T16:57:22.149Z,53.03
2023-05-14T16:59:53.971Z,53.25
2023-05-14T17:02:20.592Z,53.88
2023-05-14T17:04:49.838Z,53.67
2023-05-14T17:07:16.499Z,53.96
2023-05-14T17:09:48.018Z,54.19
2023-05-14T17:12:17.656Z,54.24
2023-05-14T17:14:44.314Z,54.63
2023-05-14T17:17:11.069Z,54.88
2023-05-14T17:19:37.695Z,54.80
2023-05-14T17:22:07.525Z,55.37
2023-05-14T17:24:35.527Z,55.29
2023-05-14T17:27:02.177Z,55.72
2023-05-14T17:29:31.122Z,55.86
2023-05-14T17:32:01.273Z,56.08
2023-05-14T17:34:30.166Z,56.28
2023-05-14T17:36:56.808Z,56.69
2023-05-14T17:39:23.410Z,56.28
2023-05-14T17:41:50.038Z,56.53
2023-05-14T17:44:16.643Z,56.81
2023-05-14T17:46:44.817Z,56.53
2023-05-14T17:49:13.859Z,56.63
2023-05-14T17:51:40.473Z,56.73
2023-05-14T17:54:07.121Z,56.54
2023-05-14T17:56:34.093Z,57.02
2023-05-14T17:59:00.890Z,57.13
2023-05-14T18:01:30.099Z,57.56
2023-05-14T18:03:56.756Z,57.52
2023-05-14T18:06:23.538Z,57.25
2023-05-14T18:08:50.232Z,57.38
2023-05-14T18:11:16.857Z,57.55
2023-05-14T18:13:43.671Z,58.03
2023-05-14T18:16:10.438Z,58.18
2023-05-14T18:18:37.082Z,58.62
2023-05-14T18:21:04.071Z,58.90
2023-05-14T18:23:31.533Z,58.59
2023-05-14T18:25:58.228Z,59.18
2023-05-14T18:28:27.035Z,59.55
2023-05-14T18:30:53.775Z,59.48
2023-05-14T18:33:20.505Z,59.73
2023-05-14T18:35:49.389Z,59.38
2023-05-14T18:38:18.042Z,59.90
2023-05-14T18:40:44.777Z,59.91
2023-05-14T18:43:13.448Z,59.75
2023-05-14T18:45:40.511Z,59.74
2023-05-14T18:48:10.422Z,59.85
2023-05-14T18:50:39.237Z,60.44
2023-05-14T18:53:06.359Z,60.36
2023-05-14T18:55:33.139Z,60.93
2023-05-14T18:57:59.770Z,60.85
2023-05-14T19:00:28.655Z,61.28
2023-05-14T19:02:59.933Z,61.39
2023-05-14T19:05:29.106Z,61.88
2023-05-14T19:07:56.806Z,61.84
2023-05-14T19:10:25.948Z,62.13
2023-05-14T19:12:52.552Z,62.52
2023-05-14T19:15:19.279Z,62.34
2023-05-14T19:17:46.060Z,62.34
2023-05-14T19:20:12.803Z,62.49
2023-05-14T19:22:39.438Z,62.81
2023-05-14T19:25:07.862Z,62.73
2023-05-14T19:27:38.857Z,62.88
2023-05-14T19:30:08.504Z,63.71
2023-05-14T19:32:38.100Z,63.41
2023-05-14T19:35:05.899Z,63.25
2023-05-14T19:37:35.535Z,63.18
2023-05-14T19:40:04.675Z,63.69
2023-05-14T19:42:31.853Z,63.95
2023-05-14T19:44:58.476Z,64.19
2023-05-14T19:47:25.168Z,64.39
2023-05-14T19:49:51.830Z,64.38
2023-05-14T19:52:18.473Z,64.84
2023-05-14T19:54:45.108Z,64.43
2023-05-14T19:57:12.066Z,65.29
2023-05-14T19:59:39.372Z,64.73
2023-05-14T20:02:06.164Z,64.94
2023-05-14T20:04:33.333Z,64.85
2023-05-14T20:06:59.952Z,65.54
2023-05-14T20:09:26.621Z,65.63
2023-05-14T20:11:55.437Z,65.45
2023-05-14T20:14:22.133Z,65.36
2023-05-14T20:16:49.078Z,65.62
2023-05-14T20:19:16.338Z,65.42
2023-05-14T20:21:46.265Z,66.20
2023-05-14T20:24:15.327Z,66.03
2023-05-14T20:26:41.984Z,65.88
2023-05-14T20:29:11.026Z,66.70
2023-05-14T20:31:37.635Z,65.96
2023-05-14T20:34:04.321Z,66.81
2023-05-14T20:36:30.928Z,66.66
2023-05-14T20:38:57.775Z,66.69
2023-05-14T20:41:24.596Z,67.09
2023-05-14T20:43:51.216Z,67.54
2023-05-14T20:46:18.050Z,67.01
2023-05-14T20:48:49.904Z,67.32
2023-05-14T20:51:18.899Z,67.02
2023-05-14T20:53:48.083Z,67.38
2023-05-14T20:56:14.741Z,67.03
2023-05-14T20:58:41.425Z,67.82
2023-05-14T21:01:08.214Z,67.46
2023-05-14T21:03:35.238Z,67.21
2023-05-14T21:06:04.740Z,67.71
2023-05-14T21:08:33.043Z,67.23
2023-05-14T21:10:59.974Z,67.24
2023-05-14T21:13:26.648Z,68.17
2023-05-14T21:15:55.885Z,67.76
2023-05-14T21:18:22.555Z,67.81
2023-05-14T21:20:49.153Z,67.96
2023-05-14T21:23:15.883Z,67.99
2023-05-14T21:25:44.998Z,67.85
2023-05-14T21:28:11.782Z,67.90
2023-05-14T21:30:38.361Z,67.62
2023-05-14T21:33:07.343Z,67.61
2023-05-14T21:35:34.030Z,67.66
2023-05-14T21:38:00.892Z,67.89
2023-05-14T21:40:27.534Z,67.88
2023-05-14T21:42:54.157Z,67.58
2023-05-14T21:45:25.591Z,66.95
2023-05-14T21:47:55.153Z,66.73
2023-05-14T21:50:23.070Z,67.29
2023-05-14T21:52:49.764Z,67.15
2023-05-14T21:55:16.407Z,66.93
2023-05-14T21:57:43.092Z,66.60
2023-05-14T22:00:12.905Z,66.87
2023-05-14T22:02:39.811Z,66.27
2023-05-14T22:05:06.653Z,65.97
2023-05-14T22:07:33.318Z,66.07
2023-05-14T22:09:59.986Z,65.64
2023-05-14T22:12:26.897Z,64.88
2023-05-14T22:14:56.045Z,64.68
2023-05-14T22:17:22.751Z,64.17
2023-05-14T22:19:49.397Z,64.32
2023-05-14T22:22:18.499Z,63.32
2023-05-14T22:24:45.180Z,63.04
2023-05-14T22:27:12.020Z,63.47
2023-05-14T22:29:38.620Z,63.06
2023-05-14T22:32:08.230Z,62.02
2023-05-14T22:34:37.225Z,62.13
2023-05-14T22:37:04.183Z,61.34
2023-05-14T22:39:30.767Z,61.69
2023-05-14T22:41:57.492Z,61.05
2023-05-14T22:44:27.811Z,60.51
2023-05-14T22:46:59.284Z,60.23
2023-05-14T22:49:25.953Z,60.23
2023-05-14T22:51:57.920Z,60.11
2023-05-14T22:54:24.548Z,60.44
2023-05-14T22:56:53.952Z,59.53
2023-05-14T22:59:22.720Z,59.70
2023-05-14T23:01:52.745Z,59.25
2023-05-14T23:04:19.372Z,59.45
2023-05-14T23:06:48.368Z,59.79
2023-05-14T23:09:14.981Z,59.33
2023-05-14T23:11:41.728Z,59.56
2023-05-14T23:14:10.598Z,58.78
2023-05-14T23:16:39.412Z,59.09
2023-05-14T23:19:11.152Z,59.14
2023-05-14T23:21:37.889Z,58.46
2023-05-14T23:24:04.727Z,58.49
2023-05-14T23:26:31.589Z,58.83
2023-05-14T23:28:58.216Z,58.52
2023-05-14T23:31:25.036Z,58.20
2023-05-14T23:33:51.951Z,57.91
2023-05-14T23:36:20.912Z,57.59
2023-05-14T23:38:50.077Z,57.70
2023-05-14T23:41:19.322Z,57.18
2023-05-14T23:43:45.987Z,57.36
2023-05-14T23:46:13.145Z,57.12
2023-05-14T23:48:39.918Z,57.71
2023-05-14T23:51:06.563Z,57.02
2023-05-14T23:53:33.217Z,57.38
2023-05-14T23:56:00.067Z,57.40
2023-05-14T23:58:30.339Z,57.56
